createdAt,value
2019-03-27T00:01:36.962Z,61.60
2019-03-27T00:04:04.330Z,61.58
2019-03-27T00:06:31.618Z,61.76
2019-03-27T00:08:59.041Z,61.75
2019-03-27T00:11:26.381Z,61.68
2019-03-27T00:13:53.759Z,61.67
2019-03-27T00:16:21.091Z,61.70
2019-03-27T00:18:48.200Z,61.73
2019-03-27T00:21:15.490Z,61.76
2019-03-27T00:23:42.769Z,61.79
2019-03-27T00:26:09.825Z,61.63
2019-03-27T00:28:37.147Z,61.71
2019-03-27T00:31:04.518Z,61.70
2019-03-27T00:33:31.558Z,61.80
2019-03-27T00:36:00.034Z,61.88
2019-03-27T00:38:27.389Z,61.96
2019-03-27T00:40:54.468Z,61.92
2019-03-27T00:43:21.562Z,62.15
2019-03-27T00:45:48.956Z,62.45
2019-03-27T00:48:16.372Z,62.79
2019-03-27T00:50:43.772Z,62.99
2019-03-27T00:53:11.126Z,63.26
2019-03-27T00:55:38.188Z,63.13
2019-03-27T00:58:05.481Z,63.24
2019-03-27T01:00:32.537Z,63.22
2019-03-27T01:02:59.577Z,63.22
2019-03-27T01:05:33.435Z,63.05
2019-03-27T01:08:00.717Z,63.23
2019-03-27T01:10:28.121Z,63.32
2019-03-27T01:12:55.409Z,63.44
2019-03-27T01:15:22.748Z,63.40
2019-03-27T01:18:04.815Z,63.52
2019-03-27T01:20:32.202Z,63.54
2019-03-27T01:22:59.564Z,63.61
2019-03-27T01:25:26.912Z,63.57
2019-03-27T01:27:53.949Z,63.55
2019-03-27T01:30:21.014Z,63.62
2019-03-27T01:32:48.045Z,63.64
2019-03-27T01:35:15.413Z,63.81
2019-03-27T01:37:42.453Z,63.81
2019-03-27T01:40:09.804Z,63.89
2019-03-27T01:42:36.841Z,63.81
2019-03-27T01:45:03.887Z,63.95
2019-03-27T01:47:30.926Z,64.22
2019-03-27T01:49:58.948Z,64.27
2019-03-27T01:52:25.986Z,64.50
2019-03-27T01:54:53.036Z,64.92
2019-03-27T01:57:20.090Z,65.07
2019-03-27T01:59:47.116Z,65.10
2019-03-27T02:02:14.199Z,65.12
2019-03-27T02:04:41.478Z,65.16
2019-03-27T02:07:08.532Z,65.07
2019-03-27T02:09:35.568Z,65.20
2019-03-27T02:12:02.626Z,65.43
2019-03-27T02:14:29.924Z,65.52
2019-03-27T02:16:56.974Z,65.42
2019-03-27T02:19:24.309Z,65.67
2019-03-27T02:21:51.666Z,65.57
2019-03-27T02:24:19.033Z,65.67
2019-03-27T02:26:46.134Z,65.76
2019-03-27T02:29:13.131Z,65.81
2019-03-27T02:31:40.227Z,65.93
2019-03-27T02:34:07.228Z,66.03
2019-03-27T02:36:34.563Z,66.21
2019-03-27T02:39:01.939Z,66.62
2019-03-27T02:41:29.259Z,66.42
2019-03-27T02:43:56.300Z,66.89
2019-03-27T02:46:25.520Z,66.99
2019-03-27T02:48:52.778Z,67.06
2019-03-27T02:51:19.828Z,66.89
2019-03-27T02:53:47.183Z,66.95
2019-03-27T02:56:14.537Z,67.06
2019-03-27T02:58:41.827Z,66.94
2019-03-27T03:01:09.266Z,67.06
2019-03-27T03:03:36.555Z,67.02
2019-03-27T03:06:03.614Z,67.16
2019-03-27T03:08:30.945Z,67.24
2019-03-27T03:10:57.996Z,67.31
2019-03-27T03:13:25.307Z,67.48
2019-03-27T03:15:52.665Z,67.46
2019-03-27T03:18:19.969Z,67.58
2019-03-27T03:20:47.287Z,67.98
2019-03-27T03:23:15.653Z,67.91
2019-03-27T03:25:42.944Z,68.23
2019-03-27T03:28:09.995Z,68.41
2019-03-27T03:30:37.038Z,68.68
2019-03-27T03:33:04.089Z,68.82
2019-03-27T03:35:31.583Z,68.89
2019-03-27T03:37:58.637Z,69.28
2019-03-27T03:40:26.012Z,69.40
2019-03-27T03:42:53.067Z,69.43
2019-03-27T03:45:20.428Z,69.46
2019-03-27T03:47:47.738Z,69.73
2019-03-27T03:50:14.783Z,69.82
2019-03-27T03:52:45.657Z,69.85
2019-03-27T03:55:10.672Z,69.96
2019-03-27T03:57:38.040Z,70.05
2019-03-27T04:00:05.347Z,70.04
2019-03-27T04:02:32.719Z,70.16
2019-03-27T04:05:00.071Z,70.08
2019-03-27T04:07:27.445Z,70.12
2019-03-27T04:09:54.725Z,70.17
2019-03-27T04:12:22.153Z,70.21
2019-03-27T04:14:49.206Z,70.25
2019-03-27T04:17:17.949Z,70.26
2019-03-27T04:19:46.421Z,70.32
2019-03-27T04:22:13.730Z,70.42
2019-03-27T04:24:42.203Z,70.62
2019-03-27T04:27:09.488Z,70.52
2019-03-27T04:29:36.545Z,70.51
2019-03-27T04:32:03.945Z,70.43
2019-03-27T04:34:31.395Z,70.50
2019-03-27T04:36:58.758Z,70.54
2019-03-27T04:39:26.122Z,70.51
2019-03-27T04:41:53.419Z,70.67
2019-03-27T04:44:20.825Z,70.61
2019-03-27T04:46:48.279Z,70.61
2019-03-27T04:49:15.638Z,70.88
2019-03-27T04:51:42.683Z,70.87
2019-03-27T04:54:09.745Z,70.95
2019-03-27T04:56:45.615Z,70.91
2019-03-27T04:59:12.950Z,70.96
2019-03-27T05:01:40.001Z,71.13
2019-03-27T05:04:07.301Z,71.32
2019-03-27T05:06:34.341Z,71.35
2019-03-27T05:09:01.746Z,71.43
2019-03-27T05:11:39.975Z,71.60
2019-03-27T05:16:43.393Z,71.46
2019-03-27T05:19:10.723Z,71.32
2019-03-27T05:21:38.084Z,71.30
2019-03-27T05:24:05.434Z,71.13
2019-03-27T05:26:33.305Z,70.93
2019-03-27T05:29:00.671Z,70.79
2019-03-27T05:31:28.013Z,70.54
2019-03-27T05:33:55.366Z,70.40
2019-03-27T05:36:22.539Z,70.33
2019-03-27T05:38:49.596Z,70.88
2019-03-27T05:41:16.938Z,70.88
2019-03-27T05:43:44.278Z,70.61
2019-03-27T05:46:11.631Z,70.50
2019-03-27T05:48:39.004Z,70.62
2019-03-27T05:51:06.164Z,70.19
2019-03-27T05:53:33.490Z,70.17
2019-03-27T05:56:00.536Z,70.02
2019-03-27T05:58:27.594Z,70.00
2019-03-27T06:00:54.946Z,69.80
2019-03-27T06:03:21.992Z,69.43
2019-03-27T06:05:49.343Z,69.14
2019-03-27T06:08:16.717Z,69.01
2019-03-27T06:10:44.077Z,68.85
2019-03-27T06:13:11.121Z,68.75
2019-03-27T06:15:38.462Z,68.68
2019-03-27T06:18:13.046Z,68.80
2019-03-27T06:20:34.261Z,68.45
2019-03-27T06:23:01.667Z,68.21
2019-03-27T06:25:29.017Z,67.85
2019-03-27T06:27:56.322Z,67.31
2019-03-27T06:30:23.716Z,66.76
2019-03-27T06:32:50.761Z,66.71
2019-03-27T06:35:20.157Z,66.45
2019-03-27T06:37:46.884Z,66.75
2019-03-27T06:40:14.263Z,67.12
2019-03-27T06:42:41.619Z,67.42
2019-03-27T06:45:08.681Z,67.45
2019-03-27T06:47:35.729Z,67.32
2019-03-27T06:50:03.070Z,67.11
2019-03-27T06:52:30.423Z,66.89
2019-03-27T06:54:57.779Z,67.64
2019-03-27T06:57:24.824Z,67.50
2019-03-27T06:59:51.883Z,67.32
2019-03-27T07:02:18.932Z,67.20
2019-03-27T07:04:45.991Z,67.38
2019-03-27T07:07:13.034Z,67.65
2019-03-27T07:09:42.494Z,67.49
2019-03-27T07:12:20.454Z,66.79
2019-03-27T07:14:38.263Z,66.92
2019-03-27T07:17:05.321Z,66.93
2019-03-27T07:19:32.356Z,66.93
2019-03-27T07:22:00.736Z,66.77
2019-03-27T07:24:28.025Z,66.58
2019-03-27T07:26:55.084Z,66.02
2019-03-27T07:29:22.407Z,65.67
2019-03-27T07:31:49.465Z,65.28
2019-03-27T07:34:16.791Z,65.23
2019-03-27T07:36:43.848Z,64.62
2019-03-27T07:39:11.558Z,65.14
2019-03-27T07:41:38.958Z,65.39
2019-03-27T07:44:06.322Z,65.04
2019-03-27T07:46:33.672Z,64.84
2019-03-27T07:49:01.028Z,64.62
2019-03-27T07:51:28.386Z,65.10
2019-03-27T07:53:56.676Z,65.52
2019-03-27T07:56:24.117Z,65.58
2019-03-27T07:58:51.162Z,65.21
2019-03-27T08:01:18.217Z,64.71
2019-03-27T08:03:45.263Z,62.92
2019-03-27T08:06:12.317Z,62.22
2019-03-27T08:08:39.662Z,62.01
2019-03-27T08:11:06.958Z,61.03
2019-03-27T08:13:34.271Z,61.89
2019-03-27T08:16:01.327Z,61.11
2019-03-27T08:18:28.371Z,60.91
2019-03-27T08:20:55.429Z,57.85
2019-03-27T08:23:22.711Z,58.40
2019-03-27T08:25:50.128Z,57.67
2019-03-27T08:28:17.167Z,55.46
2019-03-27T08:30:44.224Z,55.56
2019-03-27T08:33:11.273Z,51.18
2019-03-27T08:35:38.316Z,50.85
2019-03-27T08:38:05.674Z,49.72
2019-03-27T08:40:32.722Z,48.75
2019-03-27T08:42:59.787Z,48.78
2019-03-27T08:45:27.129Z,47.60
2019-03-27T08:47:54.482Z,45.72
2019-03-27T08:50:21.852Z,42.52
2019-03-27T08:52:49.205Z,39.51
2019-03-27T08:55:16.255Z,39.32
2019-03-27T08:57:43.318Z,41.96
2019-03-27T09:00:10.636Z,42.64
2019-03-27T09:02:37.961Z,40.61
2019-03-27T09:05:05.001Z,41.69
2019-03-27T09:07:32.421Z,41.09
2019-03-27T09:09:59.464Z,40.29
2019-03-27T09:12:26.811Z,40.97
2019-03-27T09:14:54.152Z,40.89
2019-03-27T09:17:21.212Z,40.55
2019-03-27T09:19:48.561Z,41.82
2019-03-27T09:22:15.916Z,41.88
2019-03-27T09:24:43.285Z,40.82
2019-03-27T09:27:10.625Z,41.33
2019-03-27T09:29:37.980Z,40.03
2019-03-27T09:32:05.350Z,39.28
2019-03-27T09:34:32.692Z,39.76
2019-03-27T09:37:00.044Z,39.37
2019-03-27T09:39:27.088Z,38.12
2019-03-27T09:41:54.149Z,38.36
2019-03-27T09:44:21.491Z,36.49
2019-03-27T09:46:48.556Z,35.50
2019-03-27T09:49:15.606Z,32.51
2019-03-27T09:51:42.940Z,33.16
2019-03-27T09:54:09.981Z,34.89
2019-03-27T09:56:37.025Z,37.66
2019-03-27T09:59:06.067Z,41.03
2019-03-27T10:01:33.084Z,42.88
2019-03-27T10:04:00.444Z,44.74
2019-03-27T10:06:27.487Z,47.52
2019-03-27T10:08:54.837Z,47.67
2019-03-27T10:11:23.848Z,46.99
2019-03-27T10:13:51.007Z,45.73
2019-03-27T10:16:18.373Z,44.58
2019-03-27T10:18:47.448Z,44.06
2019-03-27T10:21:14.534Z,43.48
2019-03-27T10:23:41.837Z,42.52
2019-03-27T10:26:09.200Z,41.95
2019-03-27T10:28:36.247Z,41.81
2019-03-27T10:31:03.295Z,42.12
2019-03-27T10:33:30.642Z,42.79
2019-03-27T10:35:57.689Z,42.54
2019-03-27T10:38:25.052Z,44.54
2019-03-27T10:40:52.092Z,45.56
2019-03-27T10:43:20.563Z,45.98
2019-03-27T10:45:47.995Z,46.64
2019-03-27T10:48:15.303Z,46.36
2019-03-27T10:50:42.644Z,46.44
2019-03-27T10:53:09.767Z,47.60
2019-03-27T10:55:37.052Z,47.93
2019-03-27T10:58:04.403Z,47.63
2019-03-27T11:00:32.677Z,49.15
2019-03-27T11:02:59.732Z,49.83
2019-03-27T11:05:27.094Z,48.51
2019-03-27T11:07:54.150Z,48.23
2019-03-27T11:10:21.500Z,47.27
2019-03-27T11:12:48.555Z,46.19
2019-03-27T11:15:15.595Z,44.99
2019-03-27T11:17:42.938Z,43.66
2019-03-27T11:20:10.309Z,42.54
2019-03-27T11:22:37.641Z,41.21
2019-03-27T11:25:04.706Z,39.87
2019-03-27T11:27:31.750Z,40.16
2019-03-27T11:29:59.114Z,39.23
2019-03-27T11:32:26.157Z,38.53
2019-03-27T11:34:53.514Z,34.83
2019-03-27T11:37:20.554Z,31.62
2019-03-27T11:39:47.616Z,28.82
2019-03-27T11:42:14.720Z,28.11
2019-03-27T11:44:42.098Z,29.47
2019-03-27T11:47:09.454Z,30.31
2019-03-27T11:49:36.829Z,31.51
2019-03-27T11:52:03.866Z,32.10
2019-03-27T11:54:31.235Z,32.18
2019-03-27T11:56:58.275Z,32.23
2019-03-27T11:59:25.338Z,32.54
2019-03-27T12:01:52.373Z,33.45
2019-03-27T12:04:19.711Z,35.57
2019-03-27T12:06:46.788Z,36.21
2019-03-27T12:09:13.811Z,35.96
2019-03-27T12:11:41.183Z,36.51
2019-03-27T12:14:08.515Z,37.12
2019-03-27T12:16:35.551Z,38.82
2019-03-27T12:19:02.610Z,39.16
2019-03-27T12:21:29.904Z,39.71
2019-03-27T12:23:57.240Z,41.99
2019-03-27T12:26:24.550Z,41.86
2019-03-27T12:28:51.589Z,42.50
2019-03-27T12:31:18.646Z,41.29
2019-03-27T12:33:45.684Z,41.99
2019-03-27T12:36:12.741Z,41.16
2019-03-27T12:38:40.125Z,41.29
2019-03-27T12:41:07.480Z,40.83
2019-03-27T12:43:34.521Z,40.85
2019-03-27T12:46:01.902Z,41.02
2019-03-27T12:48:28.943Z,41.01
2019-03-27T12:50:56.304Z,39.34
2019-03-27T12:53:23.640Z,39.03
2019-03-27T12:55:50.689Z,38.78
2019-03-27T12:58:17.731Z,37.29
2019-03-27T13:00:44.787Z,36.87
2019-03-27T13:03:12.158Z,34.67
2019-03-27T13:05:39.493Z,33.42
2019-03-27T13:08:06.774Z,31.64
2019-03-27T13:10:33.832Z,29.19
2019-03-27T13:13:00.866Z,28.49
2019-03-27T13:15:27.920Z,29.46
2019-03-27T13:17:54.963Z,31.61
2019-03-27T13:20:22.017Z,34.62
2019-03-27T13:22:49.359Z,35.27
2019-03-27T13:25:16.410Z,36.09
2019-03-27T13:27:43.457Z,36.45
2019-03-27T13:30:10.510Z,35.92
2019-03-27T13:32:37.838Z,36.47
2019-03-27T13:35:06.234Z,35.24
2019-03-27T13:37:33.586Z,34.87
2019-03-27T13:40:00.626Z,35.43
2019-03-27T13:42:27.923Z,34.50
2019-03-27T13:44:55.248Z,34.00
2019-03-27T13:47:22.601Z,33.39
2019-03-27T13:49:49.959Z,33.75
2019-03-27T13:52:17.297Z,35.18
2019-03-27T13:54:44.408Z,35.38
2019-03-27T13:57:11.393Z,36.17
2019-03-27T13:59:38.762Z,35.96
2019-03-27T14:02:06.100Z,35.69
2019-03-27T14:04:33.148Z,35.53
2019-03-27T14:07:00.242Z,36.87
2019-03-27T14:09:27.282Z,37.40
2019-03-27T14:11:54.325Z,37.91
2019-03-27T14:14:21.667Z,37.17
2019-03-27T14:16:50.128Z,37.31
2019-03-27T14:19:17.167Z,36.98
2019-03-27T14:21:54.513Z,36.72
2019-03-27T14:24:13.528Z,36.48
2019-03-27T14:26:45.460Z,37.05
2019-03-27T14:29:09.709Z,37.97
2019-03-27T14:31:36.764Z,40.08
2019-03-27T14:34:04.078Z,38.88
2019-03-27T14:36:31.128Z,38.37
2019-03-27T14:38:58.502Z,39.09
2019-03-27T14:41:25.831Z,38.53
2019-03-27T14:43:53.220Z,38.57
2019-03-27T14:46:20.548Z,39.70
2019-03-27T14:48:47.657Z,39.22
2019-03-27T14:51:14.711Z,39.46
2019-03-27T14:53:41.747Z,39.40
2019-03-27T14:56:08.789Z,39.88
2019-03-27T14:58:36.197Z,39.72
2019-03-27T15:01:03.549Z,39.73
2019-03-27T15:03:30.919Z,40.75
2019-03-27T15:05:57.967Z,40.79
2019-03-27T15:08:25.015Z,39.95
2019-03-27T15:10:52.054Z,40.57
2019-03-27T15:13:19.416Z,40.64
2019-03-27T15:15:46.454Z,39.75
2019-03-27T15:18:13.817Z,40.04
2019-03-27T15:20:41.161Z,39.42
2019-03-27T15:23:08.214Z,39.82
2019-03-27T15:25:35.510Z,40.53
2019-03-27T15:28:02.647Z,40.97
2019-03-27T15:30:29.690Z,40.81
2019-03-27T15:32:56.836Z,40.65
2019-03-27T15:35:24.194Z,40.34
2019-03-27T15:37:51.519Z,40.74
2019-03-27T15:40:18.569Z,40.79
2019-03-27T15:42:46.136Z,40.54
2019-03-27T15:45:13.598Z,41.23
2019-03-27T15:47:40.911Z,42.05
2019-03-27T15:50:08.027Z,42.19
2019-03-27T15:52:36.756Z,41.54
2019-03-27T15:55:04.187Z,41.30
2019-03-27T15:57:31.587Z,41.72
2019-03-27T15:59:58.630Z,42.51
2019-03-27T16:02:26.010Z,42.41
2019-03-27T16:04:53.346Z,42.40
2019-03-27T16:07:20.398Z,42.82
2019-03-27T16:09:47.768Z,43.05
2019-03-27T16:12:14.816Z,43.19
2019-03-27T16:14:41.858Z,43.78
2019-03-27T16:17:13.730Z,45.11
2019-03-27T16:19:37.641Z,43.90
2019-03-27T16:22:05.073Z,44.80
2019-03-27T16:24:33.309Z,44.70
2019-03-27T16:27:04.606Z,44.81
2019-03-27T16:29:34.537Z,44.67
2019-03-27T16:32:03.032Z,44.88
2019-03-27T16:34:30.334Z,44.55
2019-03-27T16:36:57.556Z,44.78
2019-03-27T16:39:24.630Z,44.79
2019-03-27T16:41:51.751Z,45.96
2019-03-27T16:44:18.765Z,45.48
2019-03-27T16:46:46.168Z,44.85
2019-03-27T16:49:13.226Z,45.20
2019-03-27T16:51:40.569Z,45.58
2019-03-27T16:54:07.629Z,46.34
2019-03-27T16:56:34.678Z,46.55
2019-03-27T16:59:02.018Z,46.86
2019-03-27T17:01:29.389Z,47.40
2019-03-27T17:03:56.729Z,47.61
2019-03-27T17:06:30.030Z,47.44
2019-03-27T17:08:57.335Z,48.01
2019-03-27T17:11:24.650Z,48.17
2019-03-27T17:13:52.092Z,48.48
2019-03-27T17:16:19.450Z,48.38
2019-03-27T17:18:46.900Z,48.63
2019-03-27T17:21:14.259Z,49.46
2019-03-27T17:23:41.613Z,49.33
2019-03-27T17:26:08.666Z,49.19
2019-03-27T17:28:35.725Z,49.68
2019-03-27T17:31:03.065Z,49.92
2019-03-27T17:33:30.518Z,50.36
2019-03-27T17:35:57.564Z,50.29
2019-03-27T17:38:24.630Z,50.69
2019-03-27T17:40:51.677Z,51.16
2019-03-27T17:43:19.043Z,51.80
2019-03-27T17:45:46.395Z,51.87
2019-03-27T17:48:13.474Z,52.41
2019-03-27T17:50:40.512Z,52.55
2019-03-27T17:53:07.569Z,52.64
2019-03-27T17:55:34.607Z,52.75
2019-03-27T17:58:01.662Z,52.84
2019-03-27T18:00:29.686Z,53.04
2019-03-27T18:02:56.778Z,53.81
2019-03-27T18:05:23.823Z,54.30
2019-03-27T18:07:50.876Z,54.05
2019-03-27T18:10:18.180Z,54.20
2019-03-27T18:12:45.218Z,54.34
2019-03-27T18:15:12.521Z,54.56
2019-03-27T18:17:39.857Z,54.71
2019-03-27T18:20:06.920Z,55.07
2019-03-27T18:22:33.966Z,55.28
2019-03-27T18:25:01.292Z,55.49
2019-03-27T18:27:28.335Z,55.78
2019-03-27T18:29:55.384Z,55.82
2019-03-27T18:32:22.677Z,56.54
2019-03-27T18:34:50.114Z,56.81
2019-03-27T18:37:17.452Z,57.11
2019-03-27T18:39:44.909Z,57.16
2019-03-27T18:42:11.962Z,57.33
2019-03-27T18:44:39.022Z,57.59
2019-03-27T18:47:06.375Z,57.40
2019-03-27T18:49:33.689Z,57.50
2019-03-27T18:52:00.731Z,57.57
2019-03-27T18:54:28.322Z,57.67
2019-03-27T18:56:55.680Z,57.92
2019-03-27T18:59:22.745Z,57.90
2019-03-27T19:01:49.791Z,57.99
2019-03-27T19:04:16.846Z,57.93
2019-03-27T19:06:44.192Z,58.04
2019-03-27T19:09:11.554Z,58.12
2019-03-27T19:11:39.091Z,58.26
2019-03-27T19:14:06.458Z,58.44
2019-03-27T19:16:33.516Z,58.95
2019-03-27T19:19:00.574Z,59.07
2019-03-27T19:21:27.927Z,59.18
2019-03-27T19:23:54.988Z,59.20
2019-03-27T19:26:22.057Z,59.12
2019-03-27T19:28:49.449Z,59.17
2019-03-27T19:31:16.811Z,59.23
2019-03-27T19:33:43.868Z,59.36
2019-03-27T19:36:11.215Z,59.25
2019-03-27T19:38:38.270Z,59.20
2019-03-27T19:41:05.733Z,59.11
2019-03-27T19:43:33.293Z,59.08
2019-03-27T19:46:00.415Z,59.24
2019-03-27T19:48:27.903Z,58.88
2019-03-27T19:50:55.240Z,59.03
2019-03-27T19:53:22.716Z,59.05
2019-03-27T19:55:49.773Z,59.02
2019-03-27T19:58:16.823Z,58.87
2019-03-27T20:00:44.160Z,58.94
2019-03-27T20:03:11.502Z,58.88
2019-03-27T20:05:38.562Z,59.12
2019-03-27T20:08:05.603Z,59.40
2019-03-27T20:10:33.057Z,59.93
2019-03-27T20:13:00.414Z,59.98
2019-03-27T20:15:27.507Z,60.23
2019-03-27T20:17:54.549Z,60.34
2019-03-27T20:20:22.893Z,60.11
2019-03-27T20:22:50.002Z,60.38
2019-03-27T20:25:17.411Z,60.38
2019-03-27T20:27:44.766Z,60.34
2019-03-27T20:30:11.846Z,60.77
2019-03-27T20:32:39.251Z,60.72
2019-03-27T20:35:06.609Z,60.72
2019-03-27T20:37:33.820Z,60.64
2019-03-27T20:40:00.950Z,60.76
2019-03-27T20:42:28.163Z,60.72
2019-03-27T20:44:55.256Z,61.01
2019-03-27T20:47:23.764Z,60.87
2019-03-27T20:49:50.823Z,60.67
2019-03-27T20:52:18.171Z,60.70
2019-03-27T20:54:54.811Z,60.59
2019-03-27T20:57:13.933Z,60.59
2019-03-27T20:59:41.057Z,60.85
2019-03-27T21:02:09.080Z,61.17
2019-03-27T21:04:36.408Z,61.45
2019-03-27T21:07:03.760Z,61.75
2019-03-27T21:09:31.113Z,62.12
2019-03-27T21:11:58.161Z,62.28
2019-03-27T21:14:25.224Z,62.21
2019-03-27T21:16:52.271Z,62.13
2019-03-27T21:19:19.319Z,62.03
2019-03-27T21:21:46.388Z,62.09
2019-03-27T21:24:13.705Z,62.08
2019-03-27T21:26:40.761Z,62.14
2019-03-27T21:29:07.811Z,62.25
2019-03-27T21:31:35.117Z,62.25
2019-03-27T21:34:02.535Z,62.25
2019-03-27T21:36:29.593Z,61.90
2019-03-27T21:38:56.638Z,61.76
2019-03-27T21:41:24.066Z,61.92
2019-03-27T21:43:51.121Z,62.16
2019-03-27T21:46:18.469Z,62.20
2019-03-27T21:48:45.844Z,62.36
2019-03-27T21:51:14.838Z,62.63
2019-03-27T21:53:41.875Z,62.60
2019-03-27T21:56:09.242Z,62.82
2019-03-27T21:58:36.280Z,63.05
2019-03-27T22:01:03.621Z,63.36
2019-03-27T22:03:31.001Z,63.67
2019-03-27T22:05:58.044Z,63.98
2019-03-27T22:08:25.322Z,64.22
2019-03-27T22:10:52.632Z,64.56
2019-03-27T22:13:19.672Z,64.54
2019-03-27T22:15:46.721Z,64.70
2019-03-27T22:18:14.090Z,64.90
2019-03-27T22:20:41.145Z,65.02
2019-03-27T22:23:08.189Z,65.33
2019-03-27T22:25:36.598Z,65.49
2019-03-27T22:28:04.146Z,65.63
2019-03-27T22:30:31.183Z,65.84
2019-03-27T22:32:58.230Z,65.95
2019-03-27T22:35:25.268Z,66.27
2019-03-27T22:37:52.318Z,66.36
2019-03-27T22:40:19.686Z,66.40
2019-03-27T22:42:46.737Z,66.57
2019-03-27T22:45:14.067Z,67.10
2019-03-27T22:47:41.426Z,67.18
2019-03-27T22:50:08.855Z,67.05
2019-03-27T22:52:37.266Z,66.89
2019-03-27T22:55:04.308Z,66.86
2019-03-27T22:57:31.364Z,66.87
2019-03-27T22:59:58.714Z,67.03
2019-03-27T23:02:26.090Z,67.26
2019-03-27T23:04:53.128Z,67.63
2019-03-27T23:07:20.183Z,67.68
2019-03-27T23:09:47.539Z,67.70
2019-03-27T23:12:14.604Z,67.98
2019-03-27T23:14:41.921Z,67.98
2019-03-27T23:17:09.278Z,67.93
2019-03-27T23:19:36.313Z,68.13
2019-03-27T23:22:03.688Z,68.00
2019-03-27T23:24:30.989Z,68.11
2019-03-27T23:26:58.309Z,68.70
2019-03-27T23:29:25.438Z,69.05
2019-03-27T23:31:52.816Z,69.25
2019-03-27T23:34:20.136Z,69.24
2019-03-27T23:36:47.177Z,69.27
2019-03-27T23:39:14.472Z,68.98
2019-03-27T23:41:41.507Z,69.03
2019-03-27T23:44:08.854Z,68.67
2019-03-27T23:46:35.884Z,68.84
2019-03-27T23:49:03.014Z,68.71
2019-03-27T23:51:30.047Z,68.96
2019-03-27T23:53:57.094Z,68.85
2019-03-27T23:56:25.523Z,68.77
2019-03-27T23:58:53.048Z,68.49
